createdAt,value
2019-04-16T00:00:45.958Z,7.25
2019-04-16T00:01:46.084Z,7.25
2019-04-16T00:02:48.530Z,7.25
2019-04-16T00:03:45.881Z,7.25
2019-04-16T00:04:45.776Z,7.25
2019-04-16T00:05:45.996Z,7.25
2019-04-16T00:06:45.948Z,7.25
2019-04-16T00:07:46.108Z,7.25
2019-04-16T00:08:46.006Z,7.12
2019-04-16T00:09:45.705Z,7.12
2019-04-16T00:10:45.939Z,7.12
2019-04-16T00:11:46.140Z,7.12
2019-04-16T00:12:46.068Z,7.12
2019-04-16T00:13:48.042Z,7.00
2019-04-16T00:14:45.543Z,7.00
2019-04-16T00:15:45.999Z,7.00
2019-04-16T00:16:46.167Z,7.00
2019-04-16T00:17:47.245Z,7.00
2019-04-16T00:18:56.641Z,6.87
2019-04-16T00:19:46.084Z,6.87
2019-04-16T00:20:45.677Z,6.87
2019-04-16T00:21:46.096Z,6.87
2019-04-16T00:22:46.003Z,6.87
2019-04-16T00:23:46.821Z,6.75
2019-04-16T00:24:45.507Z,6.75
2019-04-16T00:25:45.401Z,6.75
2019-04-16T00:26:46.025Z,6.75
2019-04-16T00:27:45.526Z,6.75
2019-04-16T00:28:46.103Z,6.75
2019-04-16T00:29:46.164Z,6.75
2019-04-16T00:30:45.559Z,6.75
2019-04-16T00:31:46.184Z,6.62
2019-04-16T00:32:46.171Z,6.62
2019-04-16T00:33:46.085Z,6.62
2019-04-16T00:34:46.198Z,6.62
2019-04-16T00:35:46.612Z,6.62
2019-04-16T00:36:48.426Z,6.62
2019-04-16T00:37:46.011Z,6.62
2019-04-16T00:38:46.111Z,6.62
2019-04-16T00:39:45.710Z,6.50
2019-04-16T00:40:45.991Z,6.50
2019-04-16T00:41:46.033Z,6.50
2019-04-16T00:42:45.429Z,6.50
2019-04-16T00:43:46.168Z,6.50
2019-04-16T00:44:45.647Z,6.50
2019-04-16T00:45:46.153Z,6.50
2019-04-16T00:46:46.168Z,6.37
2019-04-16T00:47:47.944Z,6.37
2019-04-16T00:48:46.281Z,6.37
2019-04-16T00:49:46.078Z,6.37
2019-04-16T00:50:45.579Z,6.37
2019-04-16T00:51:45.993Z,6.37
2019-04-16T00:52:46.211Z,6.37
2019-04-16T00:53:45.697Z,6.25
2019-04-16T00:54:45.471Z,6.25
2019-04-16T00:55:45.921Z,6.25
2019-04-16T00:56:46.651Z,6.25
2019-04-16T00:57:48.551Z,6.25
2019-04-16T00:58:46.043Z,6.25
2019-04-16T00:59:46.171Z,6.12
2019-04-16T01:00:46.571Z,6.12
2019-04-16T01:01:46.156Z,6.12
2019-04-16T01:02:47.091Z,6.12
2019-04-16T01:03:46.040Z,6.12
2019-04-16T01:04:46.100Z,6.00
2019-04-16T01:05:45.423Z,6.00
2019-04-16T01:06:46.095Z,6.00
2019-04-16T01:07:46.005Z,6.00
2019-04-16T01:08:54.398Z,6.00
2019-04-16T01:09:46.119Z,6.00
2019-04-16T01:10:46.095Z,5.87
2019-04-16T01:11:46.095Z,5.87
2019-04-16T01:12:46.040Z,5.87
2019-04-16T01:13:48.571Z,5.87
2019-04-16T01:14:46.012Z,5.87
2019-04-16T01:15:46.056Z,5.87
2019-04-16T01:16:46.069Z,5.87
2019-04-16T01:17:45.975Z,5.87
2019-04-16T01:18:46.077Z,5.87
2019-04-16T01:19:46.177Z,5.87
2019-04-16T01:20:45.576Z,5.87
2019-04-16T01:21:46.410Z,5.75
2019-04-16T01:22:46.875Z,5.75
2019-04-16T01:23:48.432Z,5.75
2019-04-16T01:24:45.713Z,5.75
2019-04-16T01:25:46.027Z,5.75
2019-04-16T01:26:46.498Z,5.75
2019-04-16T01:27:46.127Z,5.75
2019-04-16T01:28:46.149Z,5.75
2019-04-16T01:29:45.739Z,5.75
2019-04-16T01:30:46.065Z,5.75
2019-04-16T01:31:45.860Z,5.75
2019-04-16T01:32:45.612Z,5.75
2019-04-16T01:33:46.597Z,5.75
2019-04-16T01:34:47.136Z,5.62
2019-04-16T01:35:51.019Z,5.62
2019-04-16T01:36:46.104Z,5.62
2019-04-16T01:37:46.107Z,5.62
2019-04-16T01:38:46.013Z,5.62
2019-04-16T01:39:47.743Z,5.62
2019-04-16T01:40:47.275Z,5.62
2019-04-16T01:41:46.244Z,5.62
2019-04-16T01:42:46.517Z,5.50
2019-04-16T01:43:46.091Z,5.50
2019-04-16T01:44:46.058Z,5.50
2019-04-16T01:45:46.047Z,5.50
2019-04-16T01:46:45.440Z,5.50
2019-04-16T01:47:44.794Z,5.37
2019-04-16T01:48:46.031Z,5.37
2019-04-16T01:49:45.979Z,5.37
2019-04-16T01:50:45.989Z,5.37
2019-04-16T01:51:47.437Z,5.37
2019-04-16T01:52:49.444Z,5.37
2019-04-16T01:53:46.209Z,5.37
2019-04-16T01:54:45.599Z,5.25
2019-04-16T01:55:46.075Z,5.25
2019-04-16T01:56:46.122Z,5.25
2019-04-16T01:57:45.737Z,5.25
2019-04-16T01:58:46.244Z,5.25
2019-04-16T01:59:46.217Z,5.25
2019-04-16T02:00:46.103Z,5.25
2019-04-16T02:01:45.858Z,5.12
2019-04-16T02:02:46.392Z,5.12
2019-04-16T02:03:48.899Z,5.12
2019-04-16T02:04:48.545Z,5.12
2019-04-16T02:05:45.661Z,5.12
2019-04-16T02:06:46.199Z,5.12
2019-04-16T02:07:46.207Z,5.12
2019-04-16T02:08:45.763Z,5.12
2019-04-16T02:09:46.119Z,5.12
2019-04-16T02:10:46.327Z,5.00
2019-04-16T02:11:46.120Z,5.00
2019-04-16T02:12:45.821Z,5.00
2019-04-16T02:13:46.745Z,5.00
2019-04-16T02:14:47.335Z,5.00
2019-04-16T02:15:46.264Z,5.00
2019-04-16T02:16:46.261Z,5.00
2019-04-16T02:17:46.263Z,5.00
2019-04-16T02:18:46.114Z,5.00
2019-04-16T02:19:46.189Z,5.00
2019-04-16T02:20:45.777Z,5.00
2019-04-16T02:21:46.192Z,4.87
2019-04-16T02:22:46.313Z,4.87
2019-04-16T02:23:47.992Z,4.87
2019-04-16T02:24:47.868Z,4.87
2019-04-16T02:25:48.480Z,4.87
2019-04-16T02:26:46.227Z,4.87
2019-04-16T02:27:46.129Z,4.87
2019-04-16T02:28:46.662Z,4.87
2019-04-16T02:29:46.143Z,4.87
2019-04-16T02:30:46.259Z,4.87
2019-04-16T02:31:48.029Z,4.87
2019-04-16T02:32:45.757Z,4.75
2019-04-16T02:33:46.182Z,4.75
2019-04-16T02:34:45.620Z,4.75
2019-04-16T02:35:46.091Z,4.75
2019-04-16T02:36:46.095Z,4.75
2019-04-16T02:37:46.320Z,4.75
2019-04-16T02:38:52.404Z,4.75
2019-04-16T02:39:48.246Z,4.75
2019-04-16T02:40:51.623Z,4.75
2019-04-16T02:41:46.129Z,4.75
2019-04-16T02:42:46.246Z,4.62
2019-04-16T02:43:45.529Z,4.62
2019-04-16T02:44:50.089Z,4.62
2019-04-16T02:45:45.952Z,4.62
2019-04-16T02:46:46.263Z,4.62
2019-04-16T02:47:46.284Z,4.62
2019-04-16T02:48:49.999Z,4.62
2019-04-16T02:49:45.886Z,4.62
2019-04-16T02:50:45.683Z,4.62
2019-04-16T02:51:46.192Z,4.62
2019-04-16T02:52:50.014Z,4.62
2019-04-16T02:53:45.717Z,4.62
2019-04-16T02:54:46.113Z,4.62
2019-04-16T02:55:46.326Z,4.50
2019-04-16T02:56:51.715Z,4.50
2019-04-16T02:57:46.343Z,4.50
2019-04-16T02:58:45.951Z,4.50
2019-04-16T02:59:47.377Z,4.50
2019-04-16T03:00:49.576Z,4.50
2019-04-16T03:01:46.168Z,4.50
2019-04-16T03:02:46.270Z,4.50
2019-04-16T03:03:46.490Z,4.50
2019-04-16T03:04:46.801Z,4.50
2019-04-16T03:05:46.087Z,4.50
2019-04-16T03:06:46.088Z,4.37
2019-04-16T03:07:46.307Z,4.37
2019-04-16T03:08:46.207Z,4.37
2019-04-16T03:09:45.804Z,4.37
2019-04-16T03:10:46.197Z,4.37
2019-04-16T03:11:48.990Z,4.37
2019-04-16T03:12:46.244Z,4.37
2019-04-16T03:13:45.836Z,4.37
2019-04-16T03:14:46.158Z,4.37
2019-04-16T03:15:45.950Z,4.37
2019-04-16T03:16:46.270Z,4.37
2019-04-16T03:17:46.066Z,4.25
2019-04-16T03:18:47.535Z,4.25
2019-04-16T03:19:50.914Z,4.25
2019-04-16T03:20:46.592Z,4.25
2019-04-16T03:21:48.237Z,4.25
2019-04-16T03:22:46.198Z,4.25
2019-04-16T03:23:46.202Z,4.25
2019-04-16T03:24:46.624Z,4.12
2019-04-16T03:25:46.011Z,4.12
2019-04-16T03:26:47.556Z,4.12
2019-04-16T03:27:46.248Z,4.12
2019-04-16T03:28:46.245Z,4.12
2019-04-16T03:29:46.271Z,4.12
2019-04-16T03:30:46.167Z,4.12
2019-04-16T03:31:45.758Z,4.00
2019-04-16T03:32:46.371Z,4.00
2019-04-16T03:33:50.239Z,4.00
2019-04-16T03:34:46.396Z,4.00
2019-04-16T03:35:46.398Z,4.00
2019-04-16T03:36:46.091Z,4.00
2019-04-16T03:37:46.506Z,4.00
2019-04-16T03:38:46.309Z,4.00
2019-04-16T03:39:46.212Z,4.00
2019-04-16T03:40:45.984Z,4.00
2019-04-16T03:41:45.818Z,4.00
2019-04-16T03:42:46.337Z,3.87
2019-04-16T03:43:46.036Z,3.87
2019-04-16T03:44:45.828Z,3.87
2019-04-16T03:45:45.863Z,3.87
2019-04-16T03:46:46.741Z,3.87
2019-04-16T03:47:50.869Z,3.87
2019-04-16T03:48:46.171Z,3.87
2019-04-16T03:49:45.670Z,3.87
2019-04-16T03:50:46.388Z,3.87
2019-04-16T03:51:45.881Z,3.87
2019-04-16T03:52:46.210Z,3.87
2019-04-16T03:53:46.557Z,3.75
2019-04-16T03:54:46.312Z,3.75
2019-04-16T03:55:46.265Z,3.75
2019-04-16T03:56:46.126Z,3.75
2019-04-16T03:57:46.246Z,3.75
2019-04-16T03:58:45.933Z,3.75
2019-04-16T03:59:45.851Z,3.75
2019-04-16T04:00:46.283Z,3.75
2019-04-16T04:01:46.837Z,3.75
2019-04-16T04:02:46.471Z,3.75
2019-04-16T04:03:46.376Z,3.75
2019-04-16T04:04:46.280Z,3.75
2019-04-16T04:05:46.290Z,3.62
2019-04-16T04:06:46.300Z,3.62
2019-04-16T04:07:45.793Z,3.62
2019-04-16T04:08:48.312Z,3.62
2019-04-16T04:09:46.220Z,3.62
2019-04-16T04:10:46.325Z,3.62
2019-04-16T04:11:46.845Z,3.62
2019-04-16T04:12:46.566Z,3.62
2019-04-16T04:13:49.744Z,3.62
2019-04-16T04:14:46.344Z,3.62
2019-04-16T04:15:46.152Z,3.62
2019-04-16T04:16:46.462Z,3.62
2019-04-16T04:17:46.159Z,3.62
2019-04-16T04:18:46.278Z,3.62
2019-04-16T04:19:46.869Z,3.62
2019-04-16T04:20:49.634Z,3.62
2019-04-16T04:21:46.186Z,3.62
2019-04-16T04:22:46.188Z,3.62
2019-04-16T04:23:46.318Z,3.62
2019-04-16T04:24:46.229Z,3.62
2019-04-16T04:25:46.213Z,3.62
2019-04-16T04:26:46.123Z,3.62
2019-04-16T04:27:47.641Z,3.62
2019-04-16T04:28:48.589Z,3.62
2019-04-16T04:29:46.519Z,3.62
2019-04-16T04:30:48.829Z,3.62
2019-04-16T04:31:46.398Z,3.62
2019-04-16T04:32:47.686Z,3.62
2019-04-16T04:33:46.595Z,3.62
2019-04-16T04:34:48.742Z,3.62
2019-04-16T04:35:47.467Z,3.62
2019-04-16T04:36:47.354Z,3.62
2019-04-16T04:37:46.553Z,3.62
2019-04-16T04:38:46.204Z,3.62
2019-04-16T04:39:46.317Z,3.62
2019-04-16T04:40:50.548Z,3.62
2019-04-16T04:41:46.750Z,3.62
2019-04-16T04:42:46.122Z,3.62
2019-04-16T04:43:46.236Z,3.75
2019-04-16T04:44:47.052Z,3.75
2019-04-16T04:45:45.830Z,3.75
2019-04-16T04:46:46.900Z,3.75
2019-04-16T04:47:50.998Z,3.75
2019-04-16T04:48:46.066Z,3.75
2019-04-16T04:49:46.169Z,3.75
2019-04-16T04:50:46.489Z,3.75
2019-04-16T04:51:48.960Z,3.75
2019-04-16T04:52:46.839Z,3.75
2019-04-16T04:53:47.577Z,3.87
2019-04-16T04:54:46.206Z,3.87
2019-04-16T04:55:46.322Z,3.87
2019-04-16T04:56:46.422Z,3.87
2019-04-16T04:57:46.070Z,3.87
2019-04-16T04:58:46.658Z,3.87
2019-04-16T04:59:44.902Z,3.87
2019-04-16T05:00:44.911Z,4.00
2019-04-16T05:01:45.024Z,4.00
2019-04-16T05:02:44.918Z,4.00
2019-04-16T05:03:47.405Z,4.00
2019-04-16T05:04:45.659Z,4.12
2019-04-16T05:05:46.273Z,4.12
2019-04-16T05:06:46.198Z,4.12
2019-04-16T05:07:45.886Z,4.25
2019-04-16T05:08:46.206Z,4.25
2019-04-16T05:09:46.411Z,4.25
2019-04-16T05:10:58.361Z,4.25
2019-04-16T05:11:48.501Z,4.37
2019-04-16T05:12:46.339Z,4.37
2019-04-16T05:13:46.233Z,4.37
2019-04-16T05:14:46.258Z,4.37
2019-04-16T05:15:45.024Z,4.50
2019-04-16T05:16:46.561Z,4.50
2019-04-16T05:17:46.368Z,4.50
2019-04-16T05:18:46.364Z,4.62
2019-04-16T05:19:46.682Z,4.62
2019-04-16T05:20:47.034Z,4.62
2019-04-16T05:21:49.629Z,4.62
2019-04-16T05:22:46.502Z,4.75
2019-04-16T05:23:46.506Z,4.75
2019-04-16T05:24:46.725Z,4.87
2019-04-16T05:25:46.216Z,4.87
2019-04-16T05:26:46.424Z,4.87
2019-04-16T05:27:45.806Z,5.00
2019-04-16T05:28:46.510Z,5.00
2019-04-16T05:29:48.907Z,5.00
2019-04-16T05:30:46.144Z,5.00
2019-04-16T05:31:46.360Z,5.12
2019-04-16T05:32:45.954Z,5.12
2019-04-16T05:33:46.264Z,5.12
2019-04-16T05:34:46.162Z,5.25
2019-04-16T05:35:46.284Z,5.25
2019-04-16T05:36:47.729Z,5.37
2019-04-16T05:37:48.565Z,5.37
2019-04-16T05:38:46.612Z,5.50
2019-04-16T05:39:46.716Z,5.50
2019-04-16T05:40:46.420Z,5.62
2019-04-16T05:41:47.455Z,5.62
2019-04-16T05:42:45.808Z,5.62
2019-04-16T05:43:46.441Z,5.75
2019-04-16T05:44:46.134Z,5.75
2019-04-16T05:45:46.350Z,5.87
2019-04-16T05:46:46.894Z,5.87
2019-04-16T05:47:49.042Z,6.00
2019-04-16T05:48:44.927Z,6.12
2019-04-16T05:49:46.371Z,6.12
2019-04-16T05:50:46.174Z,6.12
2019-04-16T05:51:46.404Z,6.25
2019-04-16T05:52:46.296Z,6.25
2019-04-16T05:53:46.395Z,6.37
2019-04-16T05:54:46.317Z,6.50
2019-04-16T05:55:49.672Z,6.50
2019-04-16T05:56:46.422Z,6.50
2019-04-16T05:57:45.818Z,6.62
2019-04-16T05:58:45.094Z,6.62
2019-04-16T05:59:46.135Z,6.75
2019-04-16T06:00:45.941Z,6.75
2019-04-16T06:01:46.167Z,6.87
2019-04-16T06:02:49.530Z,6.87
2019-04-16T06:03:46.353Z,7.00
2019-04-16T06:04:46.370Z,7.12
2019-04-16T06:05:46.696Z,7.12
2019-04-16T06:06:46.288Z,7.25
2019-04-16T06:07:46.426Z,7.25
2019-04-16T06:08:46.409Z,7.37
2019-04-16T06:09:46.605Z,7.50
2019-04-16T06:10:49.770Z,7.62
2019-04-16T06:11:46.617Z,7.75
2019-04-16T06:12:45.921Z,8.00
2019-04-16T06:13:46.231Z,8.13
2019-04-16T06:14:49.343Z,8.38
2019-04-16T06:15:47.169Z,8.50
2019-04-16T06:16:46.251Z,8.63
2019-04-16T06:17:46.051Z,8.75
2019-04-16T06:18:46.469Z,9.00
2019-04-16T06:19:47.384Z,9.13
2019-04-16T06:20:45.974Z,9.25
2019-04-16T06:21:46.184Z,9.38
2019-04-16T06:22:46.513Z,9.63
2019-04-16T06:23:48.241Z,9.75
2019-04-16T06:24:46.202Z,9.88
2019-04-16T06:25:46.631Z,10.00
2019-04-16T06:26:47.500Z,10.13
2019-04-16T06:27:46.423Z,10.25
2019-04-16T06:28:45.816Z,10.38
2019-04-16T06:29:47.202Z,10.50
2019-04-16T06:30:45.834Z,10.50
2019-04-16T06:31:46.370Z,10.50
2019-04-16T06:32:46.462Z,10.63
2019-04-16T06:33:46.172Z,10.63
2019-04-16T06:34:46.581Z,10.75
2019-04-16T06:35:46.388Z,10.88
2019-04-16T06:36:46.290Z,11.00
2019-04-16T06:37:46.287Z,11.12
2019-04-16T06:38:46.513Z,11.12
2019-04-16T06:39:46.308Z,11.25
2019-04-16T06:40:44.976Z,11.25
2019-04-16T06:41:48.360Z,11.38
2019-04-16T06:42:46.425Z,11.50
2019-04-16T06:43:46.326Z,11.50
2019-04-16T06:44:46.342Z,11.63
2019-04-16T06:45:46.248Z,11.75
2019-04-16T06:46:46.364Z,11.88
2019-04-16T06:47:46.358Z,12.00
2019-04-16T06:48:46.171Z,12.00
2019-04-16T06:49:48.225Z,12.13
2019-04-16T06:50:46.182Z,12.13
2019-04-16T06:51:46.172Z,12.25
2019-04-16T06:52:48.866Z,12.37
2019-04-16T06:53:46.615Z,12.50
2019-04-16T06:54:46.305Z,12.63
2019-04-16T06:55:46.515Z,12.75
2019-04-16T06:56:46.546Z,12.88
2019-04-16T06:57:46.125Z,13.00
2019-04-16T06:58:51.384Z,13.13
2019-04-16T06:59:46.468Z,13.25
2019-04-16T07:00:45.938Z,13.25
2019-04-16T07:01:46.454Z,13.38
2019-04-16T07:03:01.812Z,13.50
2019-04-16T07:03:46.479Z,13.50
2019-04-16T07:04:46.604Z,13.50
2019-04-16T07:05:46.582Z,13.62
2019-04-16T07:06:46.395Z,13.75
2019-04-16T07:07:46.912Z,13.88
2019-04-16T07:08:49.853Z,13.88
2019-04-16T07:09:46.407Z,14.00
2019-04-16T07:10:45.700Z,14.00
2019-04-16T07:11:54.198Z,14.25
2019-04-16T07:12:46.473Z,14.25
2019-04-16T07:13:46.333Z,14.25
2019-04-16T07:14:48.513Z,14.38
2019-04-16T07:15:46.556Z,14.50
2019-04-16T07:16:46.460Z,14.63
2019-04-16T07:17:46.354Z,14.75
2019-04-16T07:18:46.478Z,14.87
2019-04-16T07:19:46.584Z,15.00
2019-04-16T07:20:46.622Z,15.13
2019-04-16T07:21:49.617Z,15.13
2019-04-16T07:22:46.919Z,15.25
2019-04-16T07:23:46.948Z,15.38
2019-04-16T07:24:46.718Z,15.38
2019-04-16T07:25:46.987Z,15.50
2019-04-16T07:26:48.091Z,15.63
2019-04-16T07:27:46.427Z,15.75
2019-04-16T07:28:46.330Z,15.88
2019-04-16T07:29:46.862Z,15.88
2019-04-16T07:30:45.885Z,15.88
2019-04-16T07:31:46.042Z,15.88
2019-04-16T07:32:46.464Z,16.00
2019-04-16T07:33:46.880Z,16.00
2019-04-16T07:34:46.495Z,16.25
2019-04-16T07:35:46.715Z,16.37
2019-04-16T07:36:46.550Z,16.62
2019-04-16T07:37:46.498Z,16.75
2019-04-16T07:38:47.185Z,16.87
2019-04-16T07:39:46.643Z,16.87
2019-04-16T07:40:45.827Z,17.00
2019-04-16T07:41:45.101Z,16.87
2019-04-16T07:42:52.062Z,16.87
2019-04-16T07:43:46.247Z,16.87
2019-04-16T07:44:46.463Z,17.00
2019-04-16T07:45:48.275Z,17.12
2019-04-16T07:46:47.056Z,17.12
2019-04-16T07:47:48.335Z,17.00
2019-04-16T07:48:46.272Z,17.00
2019-04-16T07:49:46.492Z,17.00
2019-04-16T07:50:45.776Z,17.00
2019-04-16T07:51:46.310Z,17.25
2019-04-16T07:52:46.616Z,17.25
2019-04-16T07:53:48.061Z,17.37
2019-04-16T07:54:45.906Z,17.50
2019-04-16T07:55:46.748Z,17.62
2019-04-16T07:56:46.322Z,17.62
2019-04-16T07:57:46.440Z,17.75
2019-04-16T07:58:46.448Z,17.75
2019-04-16T07:59:46.135Z,17.87
2019-04-16T08:00:45.854Z,17.87
2019-04-16T08:01:47.785Z,18.00
2019-04-16T08:02:45.232Z,18.12
2019-04-16T08:03:46.580Z,18.12
2019-04-16T08:04:46.169Z,18.12
2019-04-16T08:05:46.598Z,18.37
2019-04-16T08:06:47.162Z,18.50
2019-04-16T08:07:46.513Z,18.75
2019-04-16T08:08:46.531Z,18.87
2019-04-16T08:09:46.314Z,19.00
2019-04-16T08:10:46.021Z,19.12
2019-04-16T08:11:46.438Z,19.12
2019-04-16T08:12:46.443Z,19.12
2019-04-16T08:13:46.352Z,19.25
2019-04-16T08:14:46.351Z,19.25
2019-04-16T08:15:46.361Z,19.12
2019-04-16T08:16:47.270Z,19.12
2019-04-16T08:17:46.389Z,19.12
2019-04-16T08:18:45.869Z,19.12
2019-04-16T08:19:49.052Z,19.00
2019-04-16T08:20:59.996Z,19.12
2019-04-16T08:21:46.393Z,19.12
2019-04-16T08:22:47.670Z,19.25
2019-04-16T08:23:51.522Z,19.37
2019-04-16T08:24:47.444Z,19.50
2019-04-16T08:25:46.026Z,19.50
2019-04-16T08:26:46.554Z,19.50
2019-04-16T08:27:47.250Z,19.75
2019-04-16T08:28:46.576Z,19.87
2019-04-16T08:29:46.310Z,20.00
2019-04-16T08:30:46.463Z,20.12
2019-04-16T08:31:46.471Z,20.25
2019-04-16T08:32:48.938Z,20.25
2019-04-16T08:33:46.595Z,20.25
2019-04-16T08:34:46.913Z,20.25
2019-04-16T08:35:47.642Z,20.25
2019-04-16T08:36:46.405Z,20.25
2019-04-16T08:37:49.084Z,20.25
2019-04-16T08:38:47.765Z,20.37
2019-04-16T08:39:46.522Z,20.37
2019-04-16T08:40:46.883Z,20.12
2019-04-16T08:41:46.441Z,20.00
2019-04-16T08:42:46.678Z,20.25
2019-04-16T08:43:46.460Z,20.37
2019-04-16T08:44:46.774Z,20.37
2019-04-16T08:45:46.274Z,20.37
2019-04-16T08:46:46.378Z,20.62
2019-04-16T08:47:46.472Z,20.62
2019-04-16T08:48:48.916Z,20.88
2019-04-16T08:49:46.503Z,20.88
2019-04-16T08:50:49.112Z,20.88
2019-04-16T08:51:45.286Z,20.88
2019-04-16T08:52:46.509Z,20.88
2019-04-16T08:53:47.303Z,20.75
2019-04-16T08:54:49.999Z,20.75
2019-04-16T08:55:46.332Z,20.88
2019-04-16T08:56:46.556Z,21.00
2019-04-16T08:57:47.068Z,21.12
2019-04-16T08:58:46.577Z,21.00
2019-04-16T08:59:46.469Z,21.00
2019-04-16T09:00:46.570Z,21.00
2019-04-16T09:01:46.266Z,21.12
2019-04-16T09:02:46.584Z,21.37
2019-04-16T09:03:46.598Z,21.62
2019-04-16T09:04:46.398Z,21.87
2019-04-16T09:05:46.635Z,21.87
2019-04-16T09:06:47.301Z,22.00
2019-04-16T09:07:50.663Z,22.13
2019-04-16T09:08:46.541Z,22.13
2019-04-16T09:09:46.631Z,22.25
2019-04-16T09:10:46.040Z,22.25
2019-04-16T09:11:48.591Z,22.25
2019-04-16T09:12:55.944Z,22.25
2019-04-16T09:13:48.175Z,22.37
2019-04-16T09:14:46.885Z,22.37
2019-04-16T09:15:46.584Z,22.50
2019-04-16T09:16:46.275Z,22.62
2019-04-16T09:17:46.082Z,22.62
2019-04-16T09:18:46.501Z,22.37
2019-04-16T09:19:46.824Z,22.00
2019-04-16T09:20:45.192Z,21.87
2019-04-16T09:21:46.738Z,21.87
2019-04-16T09:22:49.324Z,21.87
2019-04-16T09:23:46.452Z,21.87
2019-04-16T09:24:46.634Z,21.87
2019-04-16T09:25:46.866Z,21.62
2019-04-16T09:26:46.857Z,21.75
2019-04-16T09:27:46.669Z,21.87
2019-04-16T09:28:46.673Z,22.13
2019-04-16T09:29:46.270Z,22.25
2019-04-16T09:30:46.666Z,22.37
2019-04-16T09:31:46.654Z,22.50
2019-04-16T09:32:47.216Z,22.62
2019-04-16T09:33:47.108Z,22.62
2019-04-16T09:34:46.716Z,22.75
2019-04-16T09:35:46.553Z,22.87
2019-04-16T09:36:46.529Z,23.12
2019-04-16T09:37:46.423Z,23.38
2019-04-16T09:38:46.480Z,23.62
2019-04-16T09:39:46.657Z,23.87
2019-04-16T09:40:48.921Z,23.75
2019-04-16T09:41:46.665Z,23.75
2019-04-16T09:42:46.968Z,23.50
2019-04-16T09:43:46.572Z,23.38
2019-04-16T09:44:46.677Z,23.12
2019-04-16T09:45:46.702Z,22.87
2019-04-16T09:46:50.889Z,22.75
2019-04-16T09:47:46.090Z,22.62
2019-04-16T09:48:49.797Z,22.75
2019-04-16T09:49:46.408Z,22.75
2019-04-16T09:50:47.881Z,22.87
2019-04-16T09:51:46.665Z,23.00
2019-04-16T09:52:47.150Z,23.00
2019-04-16T09:53:46.640Z,23.12
2019-04-16T09:54:46.559Z,23.12
2019-04-16T09:55:47.515Z,23.25
2019-04-16T09:56:46.669Z,23.25
2019-04-16T09:57:46.260Z,23.25
2019-04-16T09:58:46.193Z,23.38
2019-04-16T09:59:47.745Z,23.38
2019-04-16T10:00:47.638Z,23.38
2019-04-16T10:01:49.444Z,23.38
2019-04-16T10:02:46.522Z,23.38
2019-04-16T10:03:46.526Z,23.25
2019-04-16T10:04:46.676Z,23.25
2019-04-16T10:05:46.530Z,23.12
2019-04-16T10:06:46.843Z,22.75
2019-04-16T10:07:46.952Z,22.62
2019-04-16T10:08:46.544Z,22.62
2019-04-16T10:09:46.666Z,22.50
2019-04-16T10:10:46.250Z,22.50
2019-04-16T10:11:46.265Z,22.37
2019-04-16T10:12:46.571Z,22.37
2019-04-16T10:13:46.576Z,22.37
2019-04-16T10:14:46.180Z,22.50
2019-04-16T10:15:46.827Z,22.62
2019-04-16T10:16:46.719Z,22.62
2019-04-16T10:17:46.723Z,22.50
2019-04-16T10:18:46.762Z,22.37
2019-04-16T10:19:46.726Z,22.25
2019-04-16T10:20:46.253Z,22.25
2019-04-16T10:21:46.790Z,22.37
2019-04-16T10:22:46.233Z,22.62
2019-04-16T10:23:46.259Z,22.62
2019-04-16T10:24:47.196Z,22.62
2019-04-16T10:25:46.684Z,22.75
2019-04-16T10:26:46.778Z,22.75
2019-04-16T10:27:47.095Z,22.75
2019-04-16T10:28:46.596Z,22.87
2019-04-16T10:29:46.706Z,23.12
2019-04-16T10:30:45.378Z,23.25
2019-04-16T10:31:46.830Z,23.38
2019-04-16T10:32:46.837Z,23.50
2019-04-16T10:33:47.042Z,23.38
2019-04-16T10:34:46.548Z,23.50
2019-04-16T10:35:46.660Z,23.62
2019-04-16T10:36:46.966Z,23.75
2019-04-16T10:37:46.273Z,23.62
2019-04-16T10:38:45.441Z,23.62
2019-04-16T10:39:46.467Z,23.62
2019-04-16T10:40:46.062Z,23.62
2019-04-16T10:41:46.893Z,23.75
2019-04-16T10:42:46.285Z,23.75
2019-04-16T10:43:46.208Z,23.87
2019-04-16T10:44:46.404Z,24.00
2019-04-16T10:45:46.735Z,23.87
2019-04-16T10:46:46.796Z,23.62
2019-04-16T10:47:46.629Z,23.62
2019-04-16T10:48:46.646Z,23.87
2019-04-16T10:49:47.058Z,24.00
2019-04-16T10:50:45.997Z,24.00
2019-04-16T10:51:46.549Z,24.12
2019-04-16T10:52:46.790Z,24.12
2019-04-16T10:53:46.996Z,24.12
2019-04-16T10:54:46.602Z,24.00
2019-04-16T10:55:46.691Z,23.75
2019-04-16T10:56:46.706Z,23.62
2019-04-16T10:57:46.490Z,23.50
2019-04-16T10:58:46.596Z,23.50
2019-04-16T10:59:46.294Z,23.62
2019-04-16T11:00:45.411Z,23.75
2019-04-16T11:01:46.722Z,23.62
2019-04-16T11:02:46.961Z,23.62
2019-04-16T11:03:46.740Z,23.62
2019-04-16T11:04:46.540Z,23.75
2019-04-16T11:05:46.474Z,23.87
2019-04-16T11:06:46.668Z,23.75
2019-04-16T11:07:46.672Z,23.75
2019-04-16T11:08:46.992Z,23.87
2019-04-16T11:09:46.817Z,23.87
2019-04-16T11:10:46.474Z,23.75
2019-04-16T11:11:47.012Z,23.75
2019-04-16T11:12:46.975Z,23.87
2019-04-16T11:13:59.354Z,23.75
2019-04-16T11:14:47.072Z,23.62
2019-04-16T11:15:46.741Z,23.62
2019-04-16T11:16:46.877Z,23.75
2019-04-16T11:17:46.778Z,23.87
2019-04-16T11:18:46.455Z,24.12
2019-04-16T11:19:46.953Z,24.12
2019-04-16T11:20:46.338Z,24.00
2019-04-16T11:21:47.190Z,24.12
2019-04-16T11:22:46.884Z,24.25
2019-04-16T11:23:46.821Z,24.12
2019-04-16T11:24:46.812Z,24.00
2019-04-16T11:25:47.403Z,23.75
2019-04-16T11:26:46.693Z,23.62
2019-04-16T11:27:46.946Z,23.75
2019-04-16T11:28:47.011Z,23.75
2019-04-16T11:29:46.849Z,23.75
2019-04-16T11:30:48.781Z,23.75
2019-04-16T11:31:46.365Z,23.62
2019-04-16T11:32:47.349Z,23.75
2019-04-16T11:33:46.714Z,23.87
2019-04-16T11:34:46.759Z,24.00
2019-04-16T11:35:47.514Z,24.00
2019-04-16T11:36:46.797Z,24.25
2019-04-16T11:37:46.773Z,24.25
2019-04-16T11:38:46.901Z,24.12
2019-04-16T11:39:46.902Z,24.00
2019-04-16T11:40:46.175Z,24.00
2019-04-16T11:41:46.520Z,24.00
2019-04-16T11:42:47.029Z,23.87
2019-04-16T11:43:46.941Z,23.75
2019-04-16T11:44:50.054Z,24.00
2019-04-16T11:45:46.746Z,24.12
2019-04-16T11:46:46.658Z,24.37
2019-04-16T11:47:48.273Z,24.50
2019-04-16T11:48:50.087Z,24.63
2019-04-16T11:49:46.976Z,24.75
2019-04-16T11:50:46.609Z,24.87
2019-04-16T11:51:46.561Z,24.87
2019-04-16T11:52:46.426Z,24.87
2019-04-16T11:53:46.692Z,24.87
2019-04-16T11:54:47.692Z,25.00
2019-04-16T11:55:46.711Z,24.87
2019-04-16T11:56:47.250Z,24.75
2019-04-16T11:57:46.129Z,24.75
2019-04-16T11:58:46.418Z,24.75
2019-04-16T11:59:46.683Z,24.63
2019-04-16T12:00:46.751Z,24.37
2019-04-16T12:01:46.658Z,24.37
2019-04-16T12:02:46.844Z,24.25
2019-04-16T12:03:46.979Z,24.25
2019-04-16T12:04:47.334Z,24.25
2019-04-16T12:05:46.495Z,24.37
2019-04-16T12:06:47.705Z,24.25
2019-04-16T12:07:47.208Z,24.25
2019-04-16T12:08:46.797Z,24.37
2019-04-16T12:09:47.101Z,24.37
2019-04-16T12:10:46.181Z,24.50
2019-04-16T12:11:47.032Z,24.63
2019-04-16T12:12:46.526Z,24.75
2019-04-16T12:13:46.242Z,24.75
2019-04-16T12:14:46.796Z,25.00
2019-04-16T12:15:46.955Z,25.25
2019-04-16T12:16:47.076Z,25.37
2019-04-16T12:17:46.865Z,25.37
2019-04-16T12:18:46.294Z,25.37
2019-04-16T12:19:46.583Z,25.37
2019-04-16T12:20:46.392Z,25.37
2019-04-16T12:21:46.853Z,25.25
2019-04-16T12:22:46.748Z,25.25
2019-04-16T12:23:49.789Z,25.37
2019-04-16T12:24:46.491Z,25.50
2019-04-16T12:25:47.037Z,25.62
2019-04-16T12:26:46.943Z,25.75
2019-04-16T12:27:46.420Z,25.75
2019-04-16T12:28:47.059Z,25.75
2019-04-16T12:29:46.892Z,25.75
2019-04-16T12:30:46.360Z,25.88
2019-04-16T12:31:46.877Z,26.00
2019-04-16T12:32:46.961Z,26.12
2019-04-16T12:33:46.572Z,26.12
2019-04-16T12:34:46.873Z,25.88
2019-04-16T12:35:46.489Z,25.50
2019-04-16T12:36:47.445Z,25.37
2019-04-16T12:37:46.601Z,25.25
2019-04-16T12:38:46.940Z,25.25
2019-04-16T12:39:46.870Z,25.25
2019-04-16T12:40:46.317Z,25.25
2019-04-16T12:41:46.947Z,25.25
2019-04-16T12:42:47.054Z,25.25
2019-04-16T12:43:50.812Z,25.12
2019-04-16T12:44:47.089Z,24.87
2019-04-16T12:45:47.101Z,24.75
2019-04-16T12:46:46.820Z,24.75
2019-04-16T12:47:47.104Z,24.87
2019-04-16T12:48:46.775Z,25.00
2019-04-16T12:49:47.621Z,25.12
2019-04-16T12:50:46.505Z,25.12
2019-04-16T12:51:47.057Z,25.12
2019-04-16T12:52:47.192Z,25.12
2019-04-16T12:53:52.834Z,24.75
2019-04-16T12:54:47.139Z,24.75
2019-04-16T12:55:46.723Z,24.75
2019-04-16T12:56:46.531Z,24.75
2019-04-16T12:57:47.886Z,24.75
2019-04-16T12:58:50.384Z,24.87
2019-04-16T12:59:48.788Z,24.87
2019-04-16T13:00:46.541Z,24.75
2019-04-16T13:01:47.064Z,24.75
2019-04-16T13:02:47.074Z,25.00
2019-04-16T13:03:52.265Z,25.00
2019-04-16T13:04:48.750Z,24.75
2019-04-16T13:05:47.109Z,24.75